This is the latest recevied weather packets stored in our database for station/object YO8RBY-2. If no packets are shown the sender has not sent any weather packets the latest 10 day(s).
| Time | Temp. | Humidity | Pressure | Rain* | Wind** | Luminosity | Snow |
|---|---|---|---|---|---|---|---|
| 1777566228 | 15° C | 24% | 982 hPa | - | - | 0 W/m² | - |
| 1777564402 | 13.33° C | 25% | 982 hPa | - | - | 0 W/m² | - |
| 1777562578 | 13.89° C | 24% | 982 hPa | - | - | 0 W/m² | - |
| 1777560755 | 14.44° C | 24% | 982 hPa | - | - | 0 W/m² | - |
| 1777549809 | 15° C | 24% | 982 hPa | - | - | 0 W/m² | - |
| 1777547984 | 15.56° C | 23% | 982 hPa | - | - | 0 W/m² | - |
| 1777546158 | 17.22° C | 22% | 982 hPa | - | - | 0 W/m² | - |
| 1777544333 | 16.67° C | 22% | 983 hPa | - | - | 0 W/m² | - |
| 1777542508 | 15.56° C | 22% | 983 hPa | - | - | 0 W/m² | - |
| 1777540683 | 16.11° C | 23% | 983 hPa | - | - | 0 W/m² | - |
| 1777538858 | 18.33° C | 22% | 983 hPa | - | - | 0 W/m² | - |
| 1777537033 | 17.22° C | 25% | 983 hPa | - | - | 0 W/m² | - |
| 1777535208 | 13.89° C | 28% | 983 hPa | - | - | 0 W/m² | - |
| 1777533383 | 12.78° C | 30% | 983 hPa | - | - | 0 W/m² | - |
| 1777524257 | 9.44° C | 38% | 982 hPa | - | - | 0 W/m² | - |
| 1777522432 | 7.78° C | 40% | 982 hPa | - | - | 0 W/m² | - |
| 1777520604 | 7.22° C | 41% | 982 hPa | - | - | 0 W/m² | - |
| 1777518777 | 6.67° C | 42% | 982 hPa | - | - | 0 W/m² | - |
| 1777516952 | 7.22° C | 43% | 982 hPa | - | - | 0 W/m² | - |
| 1777515127 | 7.22° C | 44% | 982 hPa | - | - | 0 W/m² | - |
| 1777513303 | 7.78° C | 42% | 981 hPa | - | - | 0 W/m² | - |
| 1777511480 | 7.78° C | 41% | 981 hPa | - | - | 0 W/m² | - |
| 1777509655 | 8.89° C | 41% | 981 hPa | - | - | 0 W/m² | - |
| 1777507831 | 9.44° C | 38% | 981 hPa | - | - | 0 W/m² | - |
| 1777506007 | 10.56° C | 36% | 981 hPa | - | - | 0 W/m² | - |
* Rain since midnight (hover to see other rain measurements)
** Current wind speed in m/s (hover to see current wind gust speed)